createdAt,value
2023-06-03T00:01:12.732Z,7.60
2023-06-03T00:03:40.575Z,7.60
2023-06-03T00:06:07.444Z,7.60
2023-06-03T00:08:34.013Z,7.50
2023-06-03T00:11:00.596Z,7.50
2023-06-03T00:13:27.245Z,7.40
2023-06-03T00:15:53.756Z,7.40
2023-06-03T00:18:20.354Z,7.30
2023-06-03T00:20:48.979Z,7.40
2023-06-03T00:23:17.162Z,7.30
2023-06-03T00:25:43.782Z,7.30
2023-06-03T00:28:11.154Z,7.30
2023-06-03T00:30:38.123Z,7.20
2023-06-03T00:33:05.448Z,7.20
2023-06-03T00:35:32.313Z,7.20
2023-06-03T00:37:58.972Z,7.10
2023-06-03T00:40:27.401Z,7.10
2023-06-03T00:42:53.992Z,7.00
2023-06-03T00:45:20.754Z,6.90
2023-06-03T00:47:48.916Z,6.90
2023-06-03T00:50:15.927Z,7.00
2023-06-03T00:52:42.759Z,7.00
2023-06-03T00:55:09.726Z,6.90
2023-06-03T00:57:36.336Z,6.90
2023-06-03T01:00:03.347Z,6.90
2023-06-03T01:02:30.392Z,6.90
2023-06-03T01:04:58.421Z,6.90
2023-06-03T01:07:41.497Z,6.80
2023-06-03T01:10:16.486Z,6.70
2023-06-03T01:13:05.578Z,6.70
2023-06-03T01:15:33.941Z,6.70
2023-06-03T01:18:06.862Z,6.60
2023-06-03T01:20:34.389Z,6.60
2023-06-03T01:23:21.896Z,6.50
2023-06-03T01:25:52.114Z,6.50
2023-06-03T01:28:21.680Z,6.40
2023-06-03T01:30:49.042Z,6.30
2023-06-03T01:33:17.037Z,6.30
2023-06-03T01:35:44.686Z,6.20
2023-06-03T01:38:11.977Z,6.20
2023-06-03T01:40:39.993Z,6.20
2023-06-03T01:43:07.037Z,6.20
2023-06-03T01:45:36.003Z,6.10
2023-06-03T01:48:03.433Z,6.10
2023-06-03T01:50:31.552Z,6.10
2023-06-03T01:52:58.034Z,6.10
2023-06-03T01:55:24.546Z,6.00
2023-06-03T01:57:51.035Z,6.00
2023-06-03T02:00:17.810Z,6.00
2023-06-03T02:02:45.896Z,5.90
2023-06-03T02:05:12.609Z,5.80
2023-06-03T02:07:39.114Z,5.90
2023-06-03T02:10:06.148Z,5.80
2023-06-03T02:12:32.903Z,5.80
2023-06-03T02:14:59.399Z,5.70
2023-06-03T02:17:26.147Z,5.70
2023-06-03T02:19:52.656Z,5.60
2023-06-03T02:22:19.522Z,5.60
2023-06-03T02:24:47.301Z,5.60
2023-06-03T02:27:20.639Z,5.50
2023-06-03T02:29:53.959Z,5.40
2023-06-03T02:32:20.820Z,5.40
2023-06-03T02:34:49.352Z,5.40
2023-06-03T02:37:18.841Z,5.40
2023-06-03T02:39:45.518Z,5.30
2023-06-03T02:42:12.406Z,5.20
2023-06-03T02:44:39.149Z,5.30
2023-06-03T02:47:05.811Z,5.20
2023-06-03T02:49:32.456Z,5.20
2023-06-03T02:51:59.695Z,5.20
2023-06-03T02:54:26.436Z,5.20
2023-06-03T02:56:53.369Z,5.30
2023-06-03T02:59:19.958Z,5.30
2023-06-03T03:01:46.530Z,5.40
2023-06-03T03:04:14.558Z,5.40
2023-06-03T03:06:41.910Z,5.40
2023-06-03T03:09:08.796Z,5.40
2023-06-03T03:11:37.639Z,5.50
2023-06-03T03:14:04.378Z,5.50
2023-06-03T03:16:34.505Z,5.50
2023-06-03T03:19:01.523Z,5.50
2023-06-03T03:21:28.152Z,5.50
2023-06-03T03:23:54.806Z,5.50
2023-06-03T03:26:22.956Z,5.50
2023-06-03T03:28:50.250Z,5.60
2023-06-03T03:31:17.627Z,5.70
2023-06-03T03:33:44.393Z,5.60
2023-06-03T03:36:13.403Z,5.60
2023-06-03T03:38:40.016Z,5.60
2023-06-03T03:41:07.364Z,5.70
2023-06-03T03:43:34.876Z,5.80
2023-06-03T03:46:01.816Z,5.80
2023-06-03T03:48:31.387Z,5.70
2023-06-03T03:50:58.499Z,5.80
2023-06-03T03:53:36.181Z,5.90
2023-06-03T03:56:03.843Z,5.90
2023-06-03T03:58:42.046Z,5.90
2023-06-03T04:01:14.122Z,6.00
2023-06-03T04:03:43.811Z,6.10
2023-06-03T04:06:11.968Z,6.20
2023-06-03T04:08:41.557Z,6.20
2023-06-03T04:11:24.976Z,6.30
2023-06-03T04:13:52.051Z,6.30
2023-06-03T04:16:49.571Z,6.40
2023-06-03T04:19:32.112Z,6.50
2023-06-03T04:22:00.686Z,6.50
2023-06-03T04:24:27.580Z,6.60
2023-06-03T04:26:54.848Z,6.70
2023-06-03T04:29:21.435Z,6.80
2023-06-03T04:31:48.055Z,7.00
2023-06-03T04:34:14.673Z,7.10
2023-06-03T04:36:41.168Z,7.20
2023-06-03T04:39:09.791Z,7.30
2023-06-03T04:41:41.370Z,7.40
2023-06-03T04:44:11.562Z,7.70
2023-06-03T04:46:38.478Z,7.80
2023-06-03T04:49:05.165Z,8.00
2023-06-03T04:51:35.045Z,8.10
2023-06-03T04:54:05.595Z,8.20
2023-06-03T04:56:32.153Z,8.30
2023-06-03T04:59:02.924Z,8.40
2023-06-03T05:01:31.147Z,8.50
2023-06-03T05:03:58.495Z,8.70
2023-06-03T05:06:25.122Z,8.80
2023-06-03T05:08:52.090Z,8.90
2023-06-03T05:11:19.634Z,9.00
2023-06-03T05:13:46.660Z,9.20
2023-06-03T05:16:13.429Z,9.20
2023-06-03T05:18:43.473Z,9.30
2023-06-03T05:21:10.737Z,9.40
2023-06-03T05:23:37.484Z,9.50
2023-06-03T05:26:04.110Z,9.50
2023-06-03T05:28:31.137Z,9.60
2023-06-03T05:30:57.836Z,9.70
2023-06-03T05:33:28.941Z,9.90
2023-06-03T05:35:55.813Z,9.90
2023-06-03T05:38:22.980Z,10.00
2023-06-03T05:40:50.671Z,10.20
2023-06-03T05:43:17.394Z,10.30
2023-06-03T05:45:44.564Z,10.50
2023-06-03T05:48:11.950Z,10.60
2023-06-03T05:50:48.410Z,11.20
2023-06-03T05:53:14.915Z,13.30
2023-06-03T05:55:41.442Z,15.00
2023-06-03T05:58:08.100Z,16.20
2023-06-03T06:00:34.701Z,17.90
2023-06-03T06:03:01.461Z,17.90
2023-06-03T06:05:28.269Z,17.70
2023-06-03T06:07:54.915Z,19.70
2023-06-03T06:10:21.431Z,20.30
2023-06-03T06:12:47.968Z,22.20
2023-06-03T06:15:14.603Z,23.20
2023-06-03T06:17:43.755Z,23.00
2023-06-03T06:20:13.800Z,24.30
2023-06-03T06:22:43.810Z,23.70
2023-06-03T06:25:10.960Z,24.60
2023-06-03T06:27:37.562Z,25.40
2023-06-03T06:30:04.603Z,27.20
2023-06-03T06:32:31.558Z,27.90
2023-06-03T06:34:58.343Z,25.60
2023-06-03T06:37:24.836Z,24.90
2023-06-03T06:39:57.506Z,25.60
2023-06-03T06:42:37.154Z,24.60
2023-06-03T06:45:16.217Z,24.90
2023-06-03T06:47:43.893Z,26.70
2023-06-03T06:50:31.316Z,27.90
2023-06-03T06:52:57.907Z,25.10
2023-06-03T06:55:47.534Z,26.20
2023-06-03T06:58:14.500Z,27.50
2023-06-03T07:00:41.422Z,27.40
2023-06-03T07:03:17.233Z,28.10
2023-06-03T07:05:46.410Z,27.50
2023-06-03T07:08:13.441Z,27.60
2023-06-03T07:10:40.587Z,28.80
2023-06-03T07:13:08.039Z,27.20
2023-06-03T07:15:35.019Z,28.50
2023-06-03T07:18:03.213Z,28.30
2023-06-03T07:20:39.716Z,29.00
2023-06-03T07:23:14.132Z,30.30
2023-06-03T07:25:45.627Z,29.30
2023-06-03T07:28:14.305Z,30.50
2023-06-03T07:30:42.856Z,32.30
2023-06-03T07:33:11.897Z,31.30
2023-06-03T07:35:38.695Z,32.50
2023-06-03T07:38:05.830Z,32.90
2023-06-03T07:40:43.657Z,32.90
2023-06-03T07:43:12.315Z,31.30
2023-06-03T07:45:39.853Z,32.40
2023-06-03T07:48:09.404Z,33.00
2023-06-03T07:50:36.130Z,34.80
2023-06-03T07:53:04.455Z,34.90
2023-06-03T07:55:40.534Z,31.80
2023-06-03T07:58:10.866Z,33.00
2023-06-03T08:00:37.865Z,32.90
2023-06-03T08:03:04.564Z,33.30
2023-06-03T08:05:35.003Z,34.20
2023-06-03T08:08:04.298Z,32.60
2023-06-03T08:10:30.877Z,34.80
2023-06-03T08:12:57.422Z,33.40
2023-06-03T08:15:29.706Z,34.10
2023-06-03T08:17:56.859Z,33.60
2023-06-03T08:20:26.138Z,32.80
2023-06-03T08:22:53.367Z,33.60
2023-06-03T08:25:20.851Z,36.20
2023-06-03T08:27:47.716Z,32.80
2023-06-03T08:30:15.968Z,33.70
2023-06-03T08:32:43.780Z,35.20
2023-06-03T08:35:12.555Z,34.00
2023-06-03T08:37:39.480Z,33.20
2023-06-03T08:40:11.386Z,29.80
2023-06-03T08:42:49.870Z,31.40
2023-06-03T08:45:18.102Z,31.60
2023-06-03T08:48:09.235Z,34.20
2023-06-03T08:50:37.085Z,34.00
2023-06-03T08:53:11.063Z,34.90
2023-06-03T08:55:40.094Z,35.80
2023-06-03T08:58:19.967Z,34.90
2023-06-03T09:00:47.819Z,34.00
2023-06-03T09:03:17.840Z,35.60
2023-06-03T09:05:45.542Z,33.30
2023-06-03T09:08:13.400Z,34.00
2023-06-03T09:10:40.273Z,33.00
2023-06-03T09:13:07.356Z,33.70
2023-06-03T09:15:35.486Z,32.30
2023-06-03T09:18:02.954Z,33.60
2023-06-03T09:20:29.634Z,32.60
2023-06-03T09:22:57.119Z,31.00
2023-06-03T09:25:23.918Z,31.50
2023-06-03T09:27:50.458Z,32.90
2023-06-03T09:30:17.820Z,31.50
2023-06-03T09:32:44.475Z,28.60
2023-06-03T09:35:11.449Z,29.80
2023-06-03T09:37:38.043Z,31.90
2023-06-03T09:40:10.867Z,31.60
2023-06-03T09:42:45.180Z,32.10
2023-06-03T09:45:28.092Z,32.10
2023-06-03T09:47:55.352Z,32.80
2023-06-03T09:50:23.463Z,33.80
2023-06-03T09:52:50.247Z,33.40
2023-06-03T09:55:18.664Z,31.30
2023-06-03T09:58:07.619Z,32.90
2023-06-03T10:00:47.759Z,31.70
2023-06-03T10:03:14.478Z,34.10
2023-06-03T10:05:42.932Z,32.40
2023-06-03T10:08:09.564Z,32.20
2023-06-03T10:10:36.305Z,31.00
2023-06-03T10:13:20.148Z,30.40
2023-06-03T10:15:46.875Z,28.00
2023-06-03T10:18:13.555Z,28.80
2023-06-03T10:20:42.100Z,28.10
2023-06-03T10:23:09.960Z,28.30
2023-06-03T10:25:46.883Z,27.50
2023-06-03T10:28:14.546Z,27.50
2023-06-03T10:30:42.543Z,29.90
2023-06-03T10:33:10.050Z,30.20
2023-06-03T10:35:38.184Z,28.60
2023-06-03T10:38:06.980Z,28.70
2023-06-03T10:40:34.537Z,28.80
2023-06-03T10:43:03.895Z,28.80
2023-06-03T10:45:31.120Z,31.10
2023-06-03T10:48:08.669Z,28.90
2023-06-03T10:50:54.121Z,27.80
2023-06-03T10:53:50.821Z,27.30
2023-06-03T10:56:39.862Z,27.60
2023-06-03T10:59:12.485Z,28.40
2023-06-03T11:02:02.959Z,27.80
2023-06-03T11:04:32.111Z,26.90
2023-06-03T11:06:59.152Z,25.70
2023-06-03T11:09:41.570Z,27.10
2023-06-03T11:12:10.986Z,28.30
2023-06-03T11:14:44.088Z,29.40
2023-06-03T11:17:13.623Z,27.10
2023-06-03T11:19:46.526Z,27.00
2023-06-03T11:22:14.807Z,26.40
2023-06-03T11:24:41.333Z,27.20
2023-06-03T11:27:10.913Z,27.50
2023-06-03T11:29:50.388Z,27.40
2023-06-03T11:32:26.865Z,27.20
2023-06-03T11:35:06.473Z,26.00
2023-06-03T11:37:42.468Z,27.00
2023-06-03T11:40:13.639Z,27.50
2023-06-03T11:42:49.294Z,27.90
2023-06-03T11:45:19.534Z,27.40
2023-06-03T11:47:54.698Z,27.50
2023-06-03T11:50:24.817Z,28.00
2023-06-03T11:52:53.264Z,27.90
2023-06-03T11:55:41.554Z,28.20
2023-06-03T11:58:09.529Z,27.80
2023-06-03T12:00:36.596Z,27.60
2023-06-03T12:03:03.747Z,27.40
2023-06-03T12:05:33.935Z,26.30
2023-06-03T12:08:02.529Z,26.70
2023-06-03T12:10:29.298Z,28.20
2023-06-03T12:12:58.698Z,27.40
2023-06-03T12:15:29.583Z,28.10
2023-06-03T12:18:04.733Z,27.50
2023-06-03T12:20:32.440Z,28.30
2023-06-03T12:23:04.736Z,27.20
2023-06-03T12:25:32.086Z,27.70
2023-06-03T12:28:19.038Z,26.70
2023-06-03T12:30:46.145Z,26.70
2023-06-03T12:33:12.718Z,27.80
2023-06-03T12:35:53.972Z,27.70
2023-06-03T12:38:22.405Z,26.80
2023-06-03T12:40:57.534Z,28.10
2023-06-03T12:43:24.036Z,28.40
2023-06-03T12:45:50.656Z,28.50
2023-06-03T12:48:31.540Z,27.20
2023-06-03T12:50:58.280Z,26.70
2023-06-03T12:53:28.406Z,26.90
2023-06-03T12:55:54.950Z,27.40
2023-06-03T12:58:21.444Z,26.70
2023-06-03T13:00:48.029Z,26.80
2023-06-03T13:03:14.647Z,27.60
2023-06-03T13:05:42.199Z,26.90
2023-06-03T13:08:11.327Z,28.00
2023-06-03T13:10:37.942Z,28.70
2023-06-03T13:13:04.867Z,27.90
2023-06-03T13:15:31.644Z,28.60
2023-06-03T13:17:58.203Z,27.60
2023-06-03T13:20:24.880Z,27.90
2023-06-03T13:22:57.548Z,27.50
2023-06-03T13:25:24.498Z,28.20
2023-06-03T13:27:54.041Z,28.90
2023-06-03T13:30:26.675Z,27.00
2023-06-03T13:32:54.196Z,27.90
2023-06-03T13:35:21.798Z,29.40
2023-06-03T13:37:48.523Z,28.10
2023-06-03T13:40:15.173Z,28.60
2023-06-03T13:42:42.336Z,28.30
2023-06-03T13:45:09.960Z,28.10
2023-06-03T13:47:37.248Z,27.60
2023-06-03T13:50:05.895Z,27.60
2023-06-03T13:52:32.774Z,27.30
2023-06-03T13:54:59.643Z,26.50
2023-06-03T13:57:26.363Z,27.10
2023-06-03T14:00:06.771Z,27.50
2023-06-03T14:02:34.073Z,27.00
2023-06-03T14:05:02.099Z,25.80
2023-06-03T14:07:29.790Z,26.30
2023-06-03T14:09:56.318Z,26.60
2023-06-03T14:12:23.158Z,26.50
2023-06-03T14:14:50.034Z,27.50
2023-06-03T14:17:16.712Z,27.10
2023-06-03T14:19:43.338Z,28.50
2023-06-03T14:22:10.919Z,27.30
2023-06-03T14:24:37.454Z,26.90
2023-06-03T14:27:04.277Z,27.30
2023-06-03T14:29:30.930Z,27.50
2023-06-03T14:31:58.810Z,27.60
2023-06-03T14:34:25.834Z,27.50
2023-06-03T14:36:52.459Z,27.60
2023-06-03T14:39:19.153Z,27.50
2023-06-03T14:41:46.575Z,27.50
2023-06-03T14:44:13.542Z,28.10
2023-06-03T14:46:40.596Z,28.40
2023-06-03T14:49:07.198Z,28.10
2023-06-03T14:51:33.715Z,28.00
2023-06-03T14:54:00.316Z,27.90
2023-06-03T14:56:27.016Z,27.90
2023-06-03T14:58:54.887Z,27.60
2023-06-03T15:01:21.760Z,27.40
2023-06-03T15:03:48.340Z,27.10
2023-06-03T15:06:16.041Z,26.90
2023-06-03T15:08:43.231Z,27.80
2023-06-03T15:11:09.734Z,27.50
2023-06-03T15:13:36.331Z,27.90
2023-06-03T15:16:06.272Z,27.10
2023-06-03T15:18:33.086Z,26.00
2023-06-03T15:20:59.965Z,25.80
2023-06-03T15:23:26.908Z,26.50
2023-06-03T15:25:53.732Z,26.00
2023-06-03T15:28:20.251Z,26.20
2023-06-03T15:30:46.795Z,26.30
2023-06-03T15:33:13.367Z,26.10
2023-06-03T15:35:39.960Z,26.20
2023-06-03T15:38:06.725Z,26.80
2023-06-03T15:40:33.292Z,25.80
2023-06-03T15:43:02.333Z,27.10
2023-06-03T15:45:29.013Z,27.00
2023-06-03T15:47:55.588Z,26.70
2023-06-03T15:50:22.130Z,26.30
2023-06-03T15:52:48.665Z,25.80
2023-06-03T15:55:15.568Z,25.50
2023-06-03T15:57:44.433Z,25.90
2023-06-03T16:00:11.553Z,25.60
2023-06-03T16:02:38.387Z,25.30
2023-06-03T16:05:06.005Z,25.50
2023-06-03T16:07:32.635Z,25.40
2023-06-03T16:09:59.352Z,25.30
2023-06-03T16:12:25.968Z,25.70
2023-06-03T16:14:52.736Z,25.40
2023-06-03T16:17:20.545Z,25.40
2023-06-03T16:19:47.622Z,24.90
2023-06-03T16:22:14.112Z,25.30
2023-06-03T16:24:41.073Z,25.60
2023-06-03T16:27:08.577Z,25.50
2023-06-03T16:29:35.174Z,24.90
2023-06-03T16:32:06.800Z,25.60
2023-06-03T16:34:33.451Z,25.10
2023-06-03T16:37:00.223Z,25.10
2023-06-03T16:39:26.952Z,24.60
2023-06-03T16:41:53.619Z,24.90
2023-06-03T16:44:24.039Z,24.40
2023-06-03T16:46:50.640Z,24.50
2023-06-03T16:49:17.822Z,24.90
2023-06-03T16:51:44.427Z,24.60
2023-06-03T16:54:11.099Z,24.60
2023-06-03T16:56:37.781Z,24.80
2023-06-03T16:59:04.697Z,23.70
2023-06-03T17:01:31.395Z,23.70
2023-06-03T17:03:59.466Z,23.60
2023-06-03T17:06:28.769Z,23.60
2023-06-03T17:08:56.736Z,23.40
2023-06-03T17:11:23.639Z,22.80
2023-06-03T17:13:50.432Z,22.50
2023-06-03T17:16:19.899Z,22.20
2023-06-03T17:18:47.609Z,22.20
2023-06-03T17:21:14.145Z,22.30
2023-06-03T17:23:40.767Z,22.10
2023-06-03T17:26:07.513Z,21.80
2023-06-03T17:28:34.025Z,22.30
2023-06-03T17:31:00.879Z,22.30
2023-06-03T17:33:27.748Z,22.10
2023-06-03T17:35:56.417Z,22.00
2023-06-03T17:38:25.303Z,21.80
2023-06-03T17:40:51.796Z,21.70
2023-06-03T17:43:18.355Z,21.50
2023-06-03T17:45:45.028Z,21.60
2023-06-03T17:48:11.756Z,21.20
2023-06-03T17:50:38.329Z,21.10
2023-06-03T17:53:04.912Z,21.00
2023-06-03T17:55:32.058Z,20.80
2023-06-03T17:57:58.590Z,20.70
2023-06-03T18:00:30.074Z,20.60
2023-06-03T18:02:56.683Z,20.50
2023-06-03T18:05:23.971Z,20.40
2023-06-03T18:07:50.500Z,20.10
2023-06-03T18:10:17.101Z,20.20
2023-06-03T18:12:44.698Z,20.30
2023-06-03T18:15:14.377Z,19.80
2023-06-03T18:17:44.196Z,19.60
2023-06-03T18:20:11.113Z,19.60
2023-06-03T18:22:37.686Z,19.60
2023-06-03T18:25:04.842Z,19.50
2023-06-03T18:27:31.503Z,19.30
2023-06-03T18:29:58.417Z,19.20
2023-06-03T18:32:25.026Z,19.00
2023-06-03T18:34:51.869Z,18.90
2023-06-03T18:37:18.592Z,18.60
2023-06-03T18:39:46.402Z,18.50
2023-06-03T18:42:15.258Z,18.40
2023-06-03T18:44:41.856Z,18.40
2023-06-03T18:47:08.508Z,18.30
2023-06-03T18:49:35.154Z,18.20
2023-06-03T18:52:03.183Z,18.00
2023-06-03T18:54:29.720Z,17.90
2023-06-03T18:56:56.373Z,17.80
2023-06-03T18:59:23.236Z,17.60
2023-06-03T19:01:51.139Z,17.40
2023-06-03T19:04:20.363Z,17.20
2023-06-03T19:06:47.403Z,17.00
2023-06-03T19:09:14.033Z,16.80
2023-06-03T19:11:43.433Z,16.70
2023-06-03T19:14:13.285Z,16.50
2023-06-03T19:16:41.589Z,16.50
2023-06-03T19:19:09.157Z,16.20
2023-06-03T19:21:36.494Z,16.10
2023-06-03T19:24:20.572Z,15.90
2023-06-03T19:26:47.698Z,15.90
2023-06-03T19:29:14.480Z,15.70
2023-06-03T19:31:41.544Z,15.50
2023-06-03T19:34:09.456Z,15.20
2023-06-03T19:36:36.100Z,15.20
2023-06-03T19:39:04.895Z,15.10
2023-06-03T19:41:31.720Z,14.80
2023-06-03T19:43:59.285Z,14.70
2023-06-03T19:46:27.745Z,14.50
2023-06-03T19:48:54.645Z,14.50
2023-06-03T19:51:29.719Z,14.30
2023-06-03T19:53:57.319Z,14.30
2023-06-03T19:56:24.616Z,14.20
2023-06-03T19:58:51.469Z,14.10
2023-06-03T20:01:18.054Z,13.90
2023-06-03T20:03:44.954Z,13.90
2023-06-03T20:06:11.740Z,13.80
2023-06-03T20:08:38.318Z,13.60
2023-06-03T20:11:07.006Z,13.50
2023-06-03T20:13:35.783Z,13.30
2023-06-03T20:16:04.925Z,13.30
2023-06-03T20:18:32.588Z,13.20
2023-06-03T20:20:59.262Z,13.10
2023-06-03T20:23:25.981Z,13.00
2023-06-03T20:25:52.582Z,12.90
2023-06-03T20:28:19.258Z,12.90
2023-06-03T20:30:45.840Z,12.80
2023-06-03T20:33:13.678Z,12.80
2023-06-03T20:35:40.233Z,12.60
2023-06-03T20:38:06.830Z,12.70
2023-06-03T20:40:33.488Z,12.60
2023-06-03T20:43:01.442Z,12.50
2023-06-03T20:45:28.076Z,12.50
2023-06-03T20:47:56.666Z,12.30
2023-06-03T20:50:24.045Z,12.40
2023-06-03T20:52:51.023Z,12.10
2023-06-03T20:55:17.697Z,11.90
2023-06-03T20:57:44.441Z,12.00
2023-06-03T21:00:11.775Z,12.00
2023-06-03T21:02:38.655Z,11.90
2023-06-03T21:05:06.955Z,11.70
2023-06-03T21:07:33.492Z,11.70
2023-06-03T21:10:00.001Z,11.70
2023-06-03T21:12:26.801Z,11.70
2023-06-03T21:14:53.454Z,11.70
2023-06-03T21:17:21.283Z,11.60
2023-06-03T21:19:49.879Z,11.50
2023-06-03T21:22:18.764Z,11.40
2023-06-03T21:24:46.592Z,11.50
2023-06-03T21:27:15.904Z,11.40
2023-06-03T21:29:42.430Z,11.40
2023-06-03T21:32:09.430Z,11.30
2023-06-03T21:34:38.641Z,11.30
2023-06-03T21:37:05.723Z,11.30
2023-06-03T21:39:32.478Z,11.20
2023-06-03T21:41:59.343Z,11.10
2023-06-03T21:44:26.327Z,11.10
2023-06-03T21:46:53.456Z,11.00
2023-06-03T21:49:19.962Z,10.90
2023-06-03T21:51:46.465Z,10.80
2023-06-03T21:54:13.143Z,10.70
2023-06-03T21:56:39.691Z,10.70
2023-06-03T21:59:09.271Z,10.60
2023-06-03T22:01:39.097Z,10.60
2023-06-03T22:04:06.165Z,10.50
2023-06-03T22:06:32.996Z,10.50
2023-06-03T22:09:17.362Z,10.40
2023-06-03T22:11:44.074Z,10.40
2023-06-03T22:14:10.586Z,10.30
2023-06-03T22:16:37.555Z,10.30
2023-06-03T22:19:05.007Z,10.20
2023-06-03T22:21:31.741Z,10.10
2023-06-03T22:23:58.745Z,10.10
2023-06-03T22:26:25.779Z,10.10
2023-06-03T22:28:52.526Z,10.00
2023-06-03T22:31:19.209Z,10.00
2023-06-03T22:33:45.919Z,9.90
2023-06-03T22:36:12.472Z,9.80
2023-06-03T22:38:39.464Z,9.80
2023-06-03T22:41:08.728Z,9.80
2023-06-03T22:43:35.911Z,9.80
2023-06-03T22:46:03.563Z,9.60
2023-06-03T22:48:30.552Z,9.50
2023-06-03T22:50:59.334Z,9.40
2023-06-03T22:53:26.549Z,9.60
2023-06-03T22:55:53.402Z,9.60
2023-06-03T22:58:20.477Z,9.60
2023-06-03T23:00:47.206Z,9.60
2023-06-03T23:03:14.049Z,9.50
2023-06-03T23:05:40.916Z,9.50
2023-06-03T23:08:10.846Z,9.50
2023-06-03T23:10:40.447Z,9.40
2023-06-03T23:13:07.023Z,9.40
2023-06-03T23:15:33.933Z,9.30
2023-06-03T23:18:00.821Z,9.30
2023-06-03T23:20:29.297Z,9.30
2023-06-03T23:22:56.110Z,9.30
2023-06-03T23:25:22.804Z,9.30
2023-06-03T23:27:49.580Z,9.20
2023-06-03T23:30:16.485Z,9.10
2023-06-03T23:32:44.410Z,8.90
2023-06-03T23:35:11.530Z,8.80
2023-06-03T23:37:41.432Z,8.90
2023-06-03T23:40:11.278Z,8.90
2023-06-03T23:42:38.722Z,8.80
2023-06-03T23:45:05.839Z,8.60
2023-06-03T23:47:32.678Z,8.80
2023-06-03T23:50:02.152Z,8.80
2023-06-03T23:52:29.380Z,8.80
2023-06-03T23:54:57.915Z,8.70
2023-06-03T23:57:28.928Z,8.80
2023-06-03T23:59:57.990Z,8.80
